Terminal Aerodrome Forecast
Issued by NWS

Home | Current Version | Previous Version | Text Only | Print | Product List | Glossary On
Versions: 1 2 3 4 5 6 7 8 9 10 11 12 13 14 15
547
FTUS42 KFFC 290520
TAFRYY
TAF
KRYY 290520Z 2906/3006 12007KT P6SM SCT060 BKN250
     FM291000 10004KT P6SM SCT025 BKN060 BKN100
     FM291300 12008KT P6SM VCSH BKN010
     FM291700 15010KT 6SM -SHRA BKN020 PROB30 2918/2924 5SM TSRA
      BKN015CB
     FM300100 13008KT 4SM -RA BR BKN007
      AMD NOT SKED TIL 291200=

USA.gov is the U.S. government's official web portal to all federal, state and local government web resources and services.